Time;durP1;ratioP1;P1;durP2;ratioP2;P2;SDS_P1;SDS_P2;PMS_P1;PMS_P2;Temp;Humidity;BMP_temperature;BMP_pressure;BME280_temperature;BME280_humidity;BME280_pressure;Samples;Min_cycle;Max_cycle;Signal;HPM_P1;HPM_P2
2022/11/15 00:01:39;;;;;;;;;;;13.30;99.90;;;;;;5120082;28;20033;-56
2022/11/15 00:04:04;;;;;;;;;;;13.30;99.90;;;;;;5119796;28;19914;-56
2022/11/15 00:06:30;;;;;;;;;;;13.40;99.90;;;;;;5120038;28;20006;-53
2022/11/15 00:09:00;;;;;;;;;;;13.40;99.90;;;;;;5119883;28;19918;-55
2022/11/15 00:11:25;;;;;;;;;;;13.40;99.90;;;;;;5119524;28;19908;-53
2022/11/15 00:13:51;;;;;;;;;;;13.40;99.90;;;;;;5119823;28;19908;-55
2022/11/15 00:16:16;;;;;;;;;;;13.40;99.90;;;;;;5119842;28;19981;-57
2022/11/15 00:18:42;;;;;;;;;;;13.40;99.90;;;;;;5119464;28;19912;-57
2022/11/15 00:21:09;;;;;;;;;;;13.50;99.90;;;;;;5119449;28;20320;-57
2022/11/15 00:23:35;;;;;;;;;;;13.50;99.90;;;;;;5119636;28;19908;-57
2022/11/15 00:26:01;;;;;;;;;;;13.50;99.90;;;;;;5119602;28;19991;-57
2022/11/15 00:28:26;;;;;;;;;;;13.50;99.90;;;;;;5119767;28;19953;-56
2022/11/15 00:30:52;;;;;;;;;;;13.50;99.90;;;;;;5119499;28;20359;-56
2022/11/15 00:33:18;;;;;;;;;;;13.50;99.90;;;;;;5119468;28;20390;-57
2022/11/15 00:35:44;;;;;;;;;;;13.50;99.90;;;;;;5119320;28;19908;-57
2022/11/15 00:38:09;;;;;;;;;;;13.50;99.90;;;;;;5119458;28;19947;-56
2022/11/15 00:40:35;;;;;;;;;;;13.50;99.90;;;;;;5119215;28;20374;-51
2022/11/15 00:43:00;;;;;;;;;;;13.50;99.90;;;;;;5119003;28;19938;-50
2022/11/15 00:45:26;;;;;;;;;;;13.40;99.90;;;;;;5119298;28;19961;-54
2022/11/15 00:47:52;;;;;;;;;;;13.40;99.90;;;;;;5118993;28;19912;-54
2022/11/15 00:50:18;;;;;;;;;;;13.40;99.90;;;;;;5119173;28;20279;-56
2022/11/15 00:52:44;;;;;;;;;;;13.40;99.90;;;;;;5119160;28;19915;-51
2022/11/15 00:55:14;;;;;;;;;;;13.40;99.90;;;;;;5118918;28;19907;-54
2022/11/15 00:57:39;;;;;;;;;;;13.40;99.90;;;;;;5118798;28;20409;-55
2022/11/15 01:00:05;;;;;;;;;;;13.50;99.90;;;;;;5119000;28;19908;-53
2022/11/15 01:02:31;;;;;;;;;;;13.50;99.90;;;;;;5118955;28;20363;-56
2022/11/15 01:04:56;;;;;;;;;;;13.40;99.90;;;;;;5118927;28;19908;-56
2022/11/15 01:07:22;;;;;;;;;;;13.40;99.90;;;;;;5118487;28;19927;-56
2022/11/15 01:09:47;;;;;;;;;;;13.40;99.90;;;;;;5118782;28;20274;-58
2022/11/15 01:12:13;;;;;;;;;;;13.40;99.90;;;;;;5118885;28;20007;-56
2022/11/15 01:14:39;;;;;;;;;;;13.40;99.90;;;;;;5118570;28;19915;-57
2022/11/15 01:17:04;;;;;;;;;;;13.40;99.90;;;;;;5118754;28;19914;-58
2022/11/15 01:19:30;;;;;;;;;;;13.50;99.90;;;;;;5118535;28;19908;-57
2022/11/15 01:21:55;;;;;;;;;;;13.40;99.90;;;;;;5118682;28;20341;-58
2022/11/15 01:24:21;;;;;;;;;;;13.40;99.90;;;;;;5118457;28;19915;-57
2022/11/15 01:26:47;;;;;;;;;;;13.40;99.90;;;;;;5118741;28;19953;-57
2022/11/15 01:29:12;;;;;;;;;;;13.40;99.90;;;;;;5118358;28;19915;-57
2022/11/15 01:31:38;;;;;;;;;;;13.40;99.90;;;;;;5118700;28;19912;-57
2022/11/15 01:34:03;;;;;;;;;;;13.40;99.90;;;;;;5118267;28;19915;-57
2022/11/15 01:36:29;;;;;;;;;;;13.40;99.90;;;;;;5118395;28;19908;-58
2022/11/15 01:38:55;;;;;;;;;;;13.50;99.90;;;;;;5118497;28;19915;-57
2022/11/15 01:41:22;;;;;;;;;;;13.40;99.90;;;;;;5118529;28;19908;-57
2022/11/15 01:43:52;;;;;;;;;;;13.30;99.90;;;;;;5118454;28;20359;-58
2022/11/15 01:46:17;;;;;;;;;;;13.20;99.90;;;;;;5118465;28;19908;-57
2022/11/15 01:48:43;;;;;;;;;;;13.10;99.90;;;;;;5118421;28;20374;-58
2022/11/15 01:51:11;;;;;;;;;;;13.10;99.90;;;;;;5118148;28;19998;-56
2022/11/15 01:53:38;;;;;;;;;;;13.10;99.90;;;;;;5118398;28;19914;-57
2022/11/15 01:56:05;;;;;;;;;;;13.10;99.90;;;;;;5118185;28;19942;-58
2022/11/15 01:58:31;;;;;;;;;;;13.20;99.90;;;;;;5118426;28;19969;-55
2022/11/15 02:00:57;;;;;;;;;;;13.30;99.90;;;;;;5118350;28;19912;-58
2022/11/15 02:03:25;;;;;;;;;;;13.20;99.90;;;;;;5117766;28;19914;-58
2022/11/15 02:05:51;;;;;;;;;;;13.20;99.90;;;;;;5118295;28;19908;-57
2022/11/15 02:08:19;;;;;;;;;;;13.20;99.90;;;;;;5117654;28;20010;-58
2022/11/15 02:10:48;;;;;;;;;;;13.20;99.90;;;;;;5117896;28;20006;-58
2022/11/15 02:13:15;;;;;;;;;;;13.20;99.90;;;;;;5118155;28;20427;-59
2022/11/15 02:16:01;;;;;;;;;;;13.20;99.90;;;;;;5118027;28;20294;-58
2022/11/15 02:18:31;;;;;;;;;;;13.20;99.90;;;;;;5117329;28;19908;-58
2022/11/15 02:21:11;;;;;;;;;;;13.30;99.90;;;;;;5118210;28;20347;-59
2022/11/15 02:23:53;;;;;;;;;;;13.30;99.90;;;;;;5117926;28;19907;-59
2022/11/15 02:26:19;;;;;;;;;;;13.20;99.90;;;;;;5117904;28;19908;-59
2022/11/15 02:28:48;;;;;;;;;;;13.20;99.90;;;;;;5118002;28;19919;-58
2022/11/15 02:31:20;;;;;;;;;;;13.30;99.90;;;;;;5118051;28;19982;-59
2022/11/15 02:33:49;;;;;;;;;;;13.30;99.90;;;;;;5117572;28;19907;-59
2022/11/15 02:36:18;;;;;;;;;;;13.20;99.90;;;;;;5118037;28;19972;-60
2022/11/15 02:38:58;;;;;;;;;;;13.20;99.90;;;;;;5118231;28;19939;-60
2022/11/15 02:41:26;;;;;;;;;;;13.10;99.90;;;;;;5118023;28;20338;-60
2022/11/15 02:43:58;;;;;;;;;;;13.20;99.90;;;;;;5117894;28;19915;-61
2022/11/15 02:49:15;;;;;;;;;;;13.20;99.90;;;;;;5121405;28;20011;-62
2022/11/15 02:51:41;;;;;;;;;;;13.20;99.90;;;;;;5121229;28;19908;-61
2022/11/15 02:54:07;;;;;;;;;;;13.20;99.90;;;;;;5121435;28;19914;-62
2022/11/15 02:56:32;;;;;;;;;;;13.20;99.90;;;;;;5121575;28;19918;-61
2022/11/15 02:59:20;;;;;;;;;;;13.20;99.90;;;;;;5121178;28;19912;-61
2022/11/15 03:01:46;;;;;;;;;;;13.30;99.90;;;;;;5121313;28;19915;-61
2022/11/15 03:04:26;;;;;;;;;;;13.30;99.90;;;;;;5121020;28;19908;-61
2022/11/15 03:06:51;;;;;;;;;;;13.40;99.90;;;;;;5121152;28;19915;-60
2022/11/15 03:09:20;;;;;;;;;;;13.40;99.90;;;;;;5121019;28;19919;-59
2022/11/15 03:11:48;;;;;;;;;;;13.30;99.90;;;;;;5121249;28;19957;-60
2022/11/15 03:14:25;;;;;;;;;;;13.40;99.90;;;;;;5121221;28;19907;-59
2022/11/15 03:16:51;;;;;;;;;;;13.30;99.90;;;;;;5120738;28;19908;-59
2022/11/15 03:19:26;;;;;;;;;;;13.30;99.90;;;;;;5120895;28;19912;-59
2022/11/15 03:21:52;;;;;;;;;;;13.40;99.90;;;;;;5121123;28;19930;-61
2022/11/15 03:24:19;;;;;;;;;;;13.40;99.90;;;;;;5121182;28;19908;-60
2022/11/15 03:26:45;;;;;;;;;;;13.40;99.90;;;;;;5120537;28;19921;-61
2022/11/15 03:29:14;;;;;;;;;;;13.30;99.90;;;;;;5120696;28;20010;-60
2022/11/15 03:31:47;;;;;;;;;;;13.40;99.90;;;;;;5120502;28;19907;-60
2022/11/15 03:34:33;;;;;;;;;;;13.40;99.90;;;;;;5120741;28;19907;-61
2022/11/15 03:36:59;;;;;;;;;;;13.40;99.90;;;;;;5102680;28;19914;-61
2022/11/15 03:39:25;;;;;;;;;;;13.40;99.90;;;;;;5120200;28;19907;-62
2022/11/15 03:41:54;;;;;;;;;;;13.40;99.90;;;;;;5120744;28;19908;-61
2022/11/15 03:44:28;;;;;;;;;;;13.40;99.90;;;;;;5120454;28;20349;-63
2022/11/15 03:46:57;;;;;;;;;;;13.40;99.90;;;;;;5120204;28;19907;-64
2022/11/15 03:49:28;;;;;;;;;;;13.40;99.90;;;;;;5120092;28;20379;-63
2022/11/15 03:51:56;;;;;;;;;;;13.40;99.90;;;;;;5120178;28;20370;-63
2022/11/15 03:54:22;;;;;;;;;;;13.30;99.90;;;;;;5120358;28;19939;-62
2022/11/15 03:56:47;;;;;;;;;;;13.20;99.90;;;;;;5119518;28;19908;-62
2022/11/15 03:59:13;;;;;;;;;;;13.20;99.90;;;;;;5120203;28;20014;-64
2022/11/15 04:01:39;;;;;;;;;;;13.30;99.90;;;;;;5120046;28;19907;-62
2022/11/15 04:04:04;;;;;;;;;;;13.30;99.90;;;;;;5120017;28;19907;-62
2022/11/15 04:06:30;;;;;;;;;;;13.40;99.90;;;;;;5119841;28;19924;-63
2022/11/15 04:08:56;;;;;;;;;;;13.30;99.90;;;;;;5119890;28;19959;-62
2022/11/15 04:11:21;;;;;;;;;;;13.40;99.90;;;;;;5119960;28;19947;-62
2022/11/15 04:13:47;;;;;;;;;;;13.40;99.90;;;;;;5119892;28;20328;-61
2022/11/15 04:16:12;;;;;;;;;;;13.40;99.90;;;;;;5119812;28;19915;-61
2022/11/15 04:18:38;;;;;;;;;;;13.40;99.90;;;;;;5119736;28;19908;-61
2022/11/15 04:26:32;;;;;;;;;;;13.50;99.90;;;;;;5119805;28;20330;-60
2022/11/15 04:31:42;;;;;;;;;;;13.50;99.90;;;;;;5119490;28;19914;-60
2022/11/15 04:34:08;;;;;;;;;;;13.50;99.90;;;;;;5119299;28;19999;-61
2022/11/15 04:39:17;;;;;;;;;;;13.50;99.90;;;;;;5119062;28;19914;-61
2022/11/15 04:41:43;;;;;;;;;;;13.60;99.90;;;;;;5119553;28;19957;-61
2022/11/15 04:44:09;;;;;;;;;;;13.60;99.90;;;;;;5119311;28;19907;-61
2022/11/15 04:46:35;;;;;;;;;;;13.60;99.90;;;;;;5100807;28;19907;-60
2022/11/15 04:49:00;;;;;;;;;;;13.60;99.90;;;;;;5119153;28;19912;-60
2022/11/15 04:51:26;;;;;;;;;;;13.60;99.90;;;;;;5118934;28;19908;-60
2022/11/15 04:53:51;;;;;;;;;;;13.60;99.90;;;;;;5119145;28;19908;-60
2022/11/15 04:56:17;;;;;;;;;;;13.50;99.90;;;;;;5119140;28;19914;-62
2022/11/15 04:58:43;;;;;;;;;;;13.60;99.90;;;;;;5119063;28;19958;-63
2022/11/15 05:01:09;;;;;;;;;;;13.60;99.90;;;;;;5118821;28;19908;-63
2022/11/15 05:06:19;;;;;;;;;;;13.70;99.90;;;;;;5118301;28;20445;-61
2022/11/15 05:08:45;;;;;;;;;;;13.70;99.90;;;;;;5118255;28;19998;-61
2022/11/15 05:11:10;;;;;;;;;;;13.70;99.90;;;;;;5118648;28;19914;-61
2022/11/15 05:13:36;;;;;;;;;;;13.70;99.90;;;;;;5118633;28;19915;-61
2022/11/15 05:16:01;;;;;;;;;;;13.70;99.90;;;;;;5118723;28;19915;-60
2022/11/15 05:18:27;;;;;;;;;;;13.70;99.90;;;;;;5119310;28;19930;-60
2022/11/15 05:20:53;;;;;;;;;;;13.80;99.90;;;;;;5100865;28;19912;-59
2022/11/15 05:23:18;;;;;;;;;;;13.80;99.90;;;;;;5118516;28;19908;-59
2022/11/15 05:25:44;;;;;;;;;;;13.80;99.90;;;;;;5118789;28;19908;-59
2022/11/15 05:28:09;;;;;;;;;;;13.80;99.90;;;;;;5118891;28;19907;-60
2022/11/15 05:30:35;;;;;;;;;;;13.80;99.90;;;;;;5118361;28;19912;-59
2022/11/15 05:33:01;;;;;;;;;;;13.80;99.90;;;;;;5118108;28;19916;-60
2022/11/15 05:35:31;;;;;;;;;;;13.70;99.90;;;;;;5118479;28;19915;-59
2022/11/15 05:37:57;;;;;;;;;;;13.70;99.90;;;;;;5118490;28;19915;-59
2022/11/15 05:40:23;;;;;;;;;;;13.80;99.90;;;;;;5118478;28;20284;-59
2022/11/15 05:42:49;;;;;;;;;;;13.80;99.90;;;;;;5118535;28;19957;-59
2022/11/15 05:45:15;;;;;;;;;;;13.80;99.90;;;;;;5118406;28;19908;-59
2022/11/15 05:47:41;;;;;;;;;;;13.80;99.90;;;;;;5118199;28;19907;-59
2022/11/15 05:50:07;;;;;;;;;;;13.80;99.90;;;;;;5116451;28;20354;-59
2022/11/15 05:52:35;;;;;;;;;;;13.80;99.90;;;;;;5118011;28;19918;-59
2022/11/15 05:55:01;;;;;;;;;;;13.80;99.90;;;;;;5118445;28;19908;-59
2022/11/15 05:57:27;;;;;;;;;;;13.80;99.90;;;;;;5118531;28;19915;-59
2022/11/15 05:59:53;;;;;;;;;;;13.80;99.90;;;;;;5118048;28;20282;-59
2022/11/15 06:02:19;;;;;;;;;;;13.90;99.90;;;;;;5118204;28;20390;-58
2022/11/15 06:04:44;;;;;;;;;;;13.90;99.90;;;;;;5117944;28;19908;-59
2022/11/15 06:07:10;;;;;;;;;;;13.90;99.90;;;;;;5116836;28;20336;-60
2022/11/15 06:09:36;;;;;;;;;;;13.90;99.90;;;;;;5116244;28;20006;-60
2022/11/15 06:12:01;;;;;;;;;;;13.90;99.90;;;;;;5115617;28;20294;-59
2022/11/15 06:14:27;;;;;;;;;;;13.90;99.90;;;;;;5117128;28;19911;-60
2022/11/15 06:16:53;;;;;;;;;;;13.90;99.90;;;;;;5117837;28;19912;-60
2022/11/15 06:19:18;;;;;;;;;;;13.90;99.90;;;;;;5120280;28;19973;-59
2022/11/15 06:21:44;;;;;;;;;;;13.90;99.90;;;;;;5121973;28;19911;-59
2022/11/15 06:24:10;;;;;;;;;;;13.90;99.90;;;;;;5121958;28;19954;-59
2022/11/15 06:26:35;;;;;;;;;;;13.90;99.90;;;;;;5122009;28;20436;-59
2022/11/15 06:29:02;;;;;;;;;;;13.90;99.90;;;;;;5121597;28;19912;-58
2022/11/15 06:31:28;;;;;;;;;;;14.00;99.90;;;;;;5122039;28;19908;-58
2022/11/15 06:33:53;;;;;;;;;;;14.00;99.90;;;;;;5121988;28;19951;-58
2022/11/15 06:36:19;;;;;;;;;;;14.00;99.90;;;;;;5121602;28;19908;-59
2022/11/15 06:38:45;;;;;;;;;;;14.10;99.90;;;;;;5121695;28;19908;-58
2022/11/15 06:41:11;;;;;;;;;;;14.10;99.90;;;;;;5121249;28;20378;-60
2022/11/15 06:43:37;;;;;;;;;;;14.10;99.90;;;;;;5121857;28;19967;-60
2022/11/15 06:46:04;;;;;;;;;;;14.10;99.90;;;;;;5121359;28;19964;-60
2022/11/15 06:48:30;;;;;;;;;;;14.00;99.90;;;;;;5121411;28;20255;-59
2022/11/15 06:50:57;;;;;;;;;;;13.90;99.90;;;;;;5121065;28;19919;-59
2022/11/15 06:53:23;;;;;;;;;;;13.80;99.90;;;;;;5121238;28;20370;-59
2022/11/15 06:55:49;;;;;;;;;;;13.70;99.90;;;;;;5121230;28;19969;-59
2022/11/15 06:58:15;;;;;;;;;;;13.70;99.90;;;;;;5120851;28;19908;-59
2022/11/15 07:00:41;;;;;;;;;;;13.60;99.90;;;;;;5121520;28;19908;-59
2022/11/15 07:03:07;;;;;;;;;;;13.40;99.90;;;;;;5120958;28;20374;-59
2022/11/15 07:05:33;;;;;;;;;;;13.30;99.90;;;;;;5121348;28;19935;-59
2022/11/15 07:07:59;;;;;;;;;;;13.20;99.90;;;;;;5120541;28;19927;-58
2022/11/15 07:10:25;;;;;;;;;;;13.10;99.90;;;;;;5121007;28;19933;-59
2022/11/15 07:12:54;;;;;;;;;;;13.10;99.90;;;;;;5120815;28;20287;-58
2022/11/15 07:15:21;;;;;;;;;;;13.10;99.90;;;;;;5120767;28;19908;-59
2022/11/15 07:17:47;;;;;;;;;;;13.00;99.90;;;;;;5121039;28;20347;-58
2022/11/15 07:20:16;;;;;;;;;;;12.90;99.90;;;;;;5120659;28;19916;-58
2022/11/15 07:22:42;;;;;;;;;;;12.80;99.90;;;;;;5120854;28;19931;-58
2022/11/15 07:25:08;;;;;;;;;;;12.80;99.90;;;;;;5120766;28;19943;-58
2022/11/15 07:27:34;;;;;;;;;;;12.80;99.90;;;;;;5120890;28;19908;-57
2022/11/15 07:29:59;;;;;;;;;;;12.70;99.90;;;;;;5119965;28;19961;-57
2022/11/15 07:32:25;;;;;;;;;;;12.70;99.90;;;;;;5120712;28;19908;-57
2022/11/15 07:34:51;;;;;;;;;;;12.70;99.90;;;;;;5120568;28;19908;-57
2022/11/15 07:37:16;;;;;;;;;;;12.60;99.90;;;;;;5120544;28;19922;-57
2022/11/15 07:39:42;;;;;;;;;;;12.60;99.90;;;;;;5120311;28;19929;-57
2022/11/15 07:44:52;;;;;;;;;;;12.60;99.90;;;;;;5120651;28;19931;-57
2022/11/15 07:47:18;;;;;;;;;;;12.60;99.90;;;;;;5120383;28;19907;-57
2022/11/15 07:49:45;;;;;;;;;;;12.50;99.90;;;;;;5119891;28;20367;-57
2022/11/15 07:52:11;;;;;;;;;;;12.50;99.90;;;;;;5120101;28;20379;-57
2022/11/15 07:54:37;;;;;;;;;;;12.60;99.90;;;;;;5120429;28;19965;-58
2022/11/15 07:57:02;;;;;;;;;;;12.60;99.90;;;;;;5119963;28;19908;-58
2022/11/15 07:59:28;;;;;;;;;;;12.60;99.90;;;;;;5120497;28;19915;-57
2022/11/15 08:01:54;;;;;;;;;;;12.60;99.90;;;;;;5119912;28;19990;-58
2022/11/15 08:04:19;;;;;;;;;;;12.60;99.90;;;;;;5120037;28;19914;-59
2022/11/15 08:06:45;;;;;;;;;;;12.60;99.90;;;;;;5119839;28;19916;-57
2022/11/15 08:09:11;;;;;;;;;;;12.60;99.90;;;;;;5120053;28;19912;-58
2022/11/15 08:11:37;;;;;;;;;;;12.70;99.90;;;;;;5120165;28;19908;-58
2022/11/15 08:14:02;;;;;;;;;;;12.70;99.90;;;;;;5120204;28;19919;-57
2022/11/15 08:16:28;;;;;;;;;;;12.70;99.90;;;;;;5119813;28;19953;-57
2022/11/15 08:18:53;;;;;;;;;;;12.70;99.90;;;;;;5120028;28;20381;-58
2022/11/15 08:21:20;;;;;;;;;;;12.80;99.90;;;;;;5119541;28;19916;-59
2022/11/15 08:23:45;;;;;;;;;;;12.80;99.90;;;;;;5119338;28;19962;-59
2022/11/15 08:26:11;;;;;;;;;;;12.80;99.90;;;;;;5119468;28;19908;-58
2022/11/15 08:28:37;;;;;;;;;;;12.80;99.90;;;;;;5119153;28;19908;-58
2022/11/15 08:31:03;;;;;;;;;;;12.70;99.90;;;;;;5119694;28;20290;-58
2022/11/15 08:33:29;;;;;;;;;;;12.70;99.90;;;;;;5119331;28;20302;-58
2022/11/15 08:35:59;;;;;;;;;;;12.70;99.90;;;;;;5119582;28;19915;-58
2022/11/15 08:38:25;;;;;;;;;;;12.80;99.90;;;;;;5119261;28;20377;-59
2022/11/15 08:40:51;;;;;;;;;;;12.80;99.90;;;;;;5119360;28;19908;-58
2022/11/15 08:43:17;;;;;;;;;;;13.00;99.90;;;;;;5119028;28;20472;-58
2022/11/15 08:45:43;;;;;;;;;;;13.00;99.90;;;;;;5119103;28;19939;-58
2022/11/15 08:48:08;;;;;;;;;;;13.20;99.90;;;;;;5119189;28;19907;-58
2022/11/15 08:50:34;;;;;;;;;;;13.30;99.90;;;;;;5119137;28;19911;-58
2022/11/15 08:53:07;;;;;;;;;;;13.50;99.90;;;;;;5119213;28;19915;-58
2022/11/15 08:55:35;;;;;;;;;;;13.60;99.90;;;;;;5119121;28;19960;-58
2022/11/15 08:58:01;;;;;;;;;;;13.60;99.90;;;;;;5119161;28;19907;-58
2022/11/15 09:00:26;;;;;;;;;;;13.60;99.90;;;;;;5119029;28;20370;-59
2022/11/15 09:02:52;;;;;;;;;;;13.60;99.90;;;;;;5118964;28;19912;-58
2022/11/15 09:05:18;;;;;;;;;;;13.70;99.90;;;;;;5118779;28;19907;-58
2022/11/15 09:07:44;;;;;;;;;;;13.60;99.90;;;;;;5118210;28;20367;-59
2022/11/15 09:10:09;;;;;;;;;;;13.70;99.90;;;;;;5118374;28;19979;-59
2022/11/15 09:12:37;;;;;;;;;;;13.80;99.90;;;;;;5117689;28;20390;-59
2022/11/15 09:15:03;;;;;;;;;;;13.60;99.90;;;;;;5118847;28;19912;-59
2022/11/15 09:17:29;;;;;;;;;;;13.60;99.90;;;;;;5118320;28;19950;-59
2022/11/15 09:19:54;;;;;;;;;;;13.60;99.90;;;;;;5118383;28;19908;-59
2022/11/15 09:22:20;;;;;;;;;;;13.80;99.90;;;;;;5118769;28;19908;-59
2022/11/15 09:24:46;;;;;;;;;;;13.90;99.90;;;;;;5118532;28;19970;-59
2022/11/15 09:27:13;;;;;;;;;;;14.00;99.90;;;;;;5118923;28;19907;-59
2022/11/15 09:29:38;;;;;;;;;;;14.00;99.90;;;;;;5118590;28;19919;-59
2022/11/15 09:32:04;;;;;;;;;;;13.90;99.90;;;;;;5118687;28;19995;-59
2022/11/15 09:34:30;;;;;;;;;;;13.70;99.90;;;;;;5118560;28;19908;-60
2022/11/15 09:36:55;;;;;;;;;;;13.60;99.90;;;;;;5118628;28;19908;-59
2022/11/15 09:39:21;;;;;;;;;;;13.60;99.90;;;;;;5118284;28;19908;-60
2022/11/15 09:42:05;;;;;;;;;;;13.70;99.90;;;;;;5118126;28;19908;-60
2022/11/15 09:44:51;;;;;;;;;;;13.60;99.90;;;;;;5118302;28;20465;-60
2022/11/15 09:47:26;;;;;;;;;;;13.50;99.90;;;;;;5118283;28;19912;-61
2022/11/15 09:49:57;;;;;;;;;;;13.50;99.90;;;;;;5118113;28;19919;-61
2022/11/15 09:52:23;;;;;;;;;;;13.50;99.90;;;;;;5118152;28;20266;-61
2022/11/15 09:54:49;;;;;;;;;;;13.60;99.90;;;;;;5121851;28;19949;-61
2022/11/15 09:57:18;;;;;;;;;;;13.90;99.90;;;;;;5122343;28;20283;-61
2022/11/15 10:00:07;;;;;;;;;;;14.00;99.90;;;;;;5122207;28;19998;-61
2022/11/15 10:02:38;;;;;;;;;;;14.00;99.90;;;;;;5108517;28;19908;-61
2022/11/15 10:05:07;;;;;;;;;;;13.90;99.90;;;;;;5122433;28;19908;-61
2022/11/15 10:07:33;;;;;;;;;;;14.10;99.90;;;;;;5121918;28;19923;-61
2022/11/15 10:09:58;;;;;;;;;;;14.20;99.90;;;;;;5122223;28;19954;-61
2022/11/15 10:12:25;;;;;;;;;;;14.30;99.90;;;;;;5122261;28;19919;-61
2022/11/15 10:14:56;;;;;;;;;;;14.10;99.90;;;;;;5103669;28;20352;-61
2022/11/15 10:17:31;;;;;;;;;;;14.00;99.90;;;;;;5121729;28;19908;-61
2022/11/15 10:20:15;;;;;;;;;;;14.10;99.90;;;;;;5122143;28;19908;-61
2022/11/15 10:22:44;;;;;;;;;;;14.10;99.90;;;;;;5121823;28;19915;-61
2022/11/15 10:25:18;;;;;;;;;;;14.10;99.90;;;;;;5122039;28;19915;-61
2022/11/15 10:27:45;;;;;;;;;;;14.10;99.90;;;;;;5121759;28;19908;-61
2022/11/15 10:30:16;;;;;;;;;;;14.00;99.90;;;;;;5121472;28;19973;-61
2022/11/15 10:32:42;;;;;;;;;;;13.90;99.90;;;;;;5122115;28;20255;-61
2022/11/15 10:35:23;;;;;;;;;;;13.80;99.90;;;;;;5121582;28;19907;-62
2022/11/15 10:37:49;;;;;;;;;;;13.60;99.90;;;;;;5121747;28;19995;-61
2022/11/15 10:40:20;;;;;;;;;;;13.50;99.90;;;;;;5121383;28;19961;-61
2022/11/15 10:42:46;;;;;;;;;;;13.50;99.90;;;;;;5121436;28;19988;-63
2022/11/15 10:45:30;;;;;;;;;;;13.40;99.90;;;;;;5121116;28;19940;-62
2022/11/15 10:48:11;;;;;;;;;;;13.40;99.90;;;;;;5121389;28;20355;-62
2022/11/15 10:50:37;;;;;;;;;;;13.10;99.90;;;;;;5121155;28;19930;-62
2022/11/15 10:53:02;;;;;;;;;;;13.00;99.90;;;;;;5121638;28;20329;-62
2022/11/15 10:55:30;;;;;;;;;;;13.00;99.90;;;;;;5121598;28;19918;-62
2022/11/15 10:58:01;;;;;;;;;;;12.90;99.90;;;;;;5121326;28;20290;-62
2022/11/15 11:00:29;;;;;;;;;;;12.90;99.90;;;;;;5121117;28;19908;-61
2022/11/15 11:02:59;;;;;;;;;;;12.90;99.90;;;;;;5121218;28;19958;-62
2022/11/15 11:05:28;;;;;;;;;;;12.90;99.90;;;;;;5119613;28;20396;-62
2022/11/15 11:07:58;;;;;;;;;;;12.90;99.90;;;;;;5120750;28;19965;-62
2022/11/15 11:10:24;;;;;;;;;;;12.90;99.90;;;;;;5121003;28;19912;-62
2022/11/15 11:12:50;;;;;;;;;;;13.00;99.90;;;;;;5120626;28;19908;-62
2022/11/15 11:15:16;;;;;;;;;;;13.10;99.90;;;;;;5121253;28;19908;-62
2022/11/15 11:17:45;;;;;;;;;;;13.20;99.90;;;;;;5120549;28;20290;-61
2022/11/15 11:20:28;;;;;;;;;;;13.30;99.90;;;;;;5120936;28;19931;-61
2022/11/15 11:23:12;;;;;;;;;;;14.00;99.90;;;;;;5120456;28;19912;-61
2022/11/15 11:25:51;;;;;;;;;;;14.80;99.90;;;;;;5120674;28;19914;-61
2022/11/15 11:28:16;;;;;;;;;;;15.50;99.90;;;;;;5120647;28;19946;-62
2022/11/15 11:31:11;;;;;;;;;;;16.10;99.90;;;;;;5120697;28;19912;-62
2022/11/15 11:33:49;;;;;;;;;;;16.60;99.90;;;;;;5030140;28;19918;-61
2022/11/15 11:36:14;;;;;;;;;;;16.90;99.90;;;;;;5121286;28;19907;-62
2022/11/15 11:38:59;;;;;;;;;;;17.40;99.90;;;;;;5120583;28;20371;-62
2022/11/15 11:41:30;;;;;;;;;;;17.30;99.90;;;;;;5120560;28;20420;-62
2022/11/15 11:44:06;;;;;;;;;;;17.40;99.90;;;;;;5120345;28;19908;-62
2022/11/15 11:46:34;;;;;;;;;;;17.50;99.90;;;;;;5120498;28;20397;-62
2022/11/15 11:49:07;;;;;;;;;;;17.20;99.90;;;;;;5120069;28;19908;-62
2022/11/15 11:51:38;;;;;;;;;;;17.60;99.90;;;;;;5120425;28;19958;-62
2022/11/15 11:54:06;;;;;;;;;;;17.70;99.90;;;;;;5119708;28;19982;-62
2022/11/15 11:56:33;;;;;;;;;;;17.50;99.90;;;;;;5119757;28;19970;-62
2022/11/15 11:59:07;;;;;;;;;;;17.60;99.90;;;;;;5119997;28;19958;-62
2022/11/15 12:01:35;;;;;;;;;;;17.20;99.90;;;;;;5119704;28;20387;-61
2022/11/15 12:04:08;;;;;;;;;;;16.90;99.90;;;;;;5120005;28;19908;-61
2022/11/15 12:06:40;;;;;;;;;;;16.50;99.90;;;;;;5119790;28;19962;-61
2022/11/15 12:09:18;;;;;;;;;;;16.70;99.90;;;;;;5119779;28;21858;-62
2022/11/15 12:12:01;;;;;;;;;;;17.10;99.90;;;;;;5119655;28;20689;-62
2022/11/15 12:14:31;;;;;;;;;;;17.60;99.90;;;;;;5119542;28;19915;-61
2022/11/15 12:16:57;;;;;;;;;;;16.80;99.90;;;;;;5119499;28;19930;-61
2022/11/15 12:19:23;;;;;;;;;;;16.40;99.90;;;;;;5119497;28;20010;-61
2022/11/15 12:21:54;;;;;;;;;;;15.90;99.90;;;;;;5119485;28;19939;-61
2022/11/15 12:24:39;;;;;;;;;;;15.70;99.90;;;;;;5119384;28;20287;-62
2022/11/15 12:27:04;;;;;;;;;;;15.40;99.90;;;;;;5119309;28;20329;-62
2022/11/15 12:29:43;;;;;;;;;;;15.20;99.90;;;;;;5119466;28;19919;-61
2022/11/15 12:32:24;;;;;;;;;;;15.10;99.90;;;;;;5119411;28;20363;-62
2022/11/15 12:34:50;;;;;;;;;;;15.00;99.90;;;;;;5118955;28;19914;-62
2022/11/15 12:37:34;;;;;;;;;;;15.30;99.90;;;;;;5119653;28;20002;-61
2022/11/15 12:40:08;;;;;;;;;;;15.80;99.90;;;;;;5100834;28;19908;-61
2022/11/15 12:42:36;;;;;;;;;;;16.00;99.90;;;;;;5119139;28;19907;-62
2022/11/15 12:45:01;;;;;;;;;;;15.70;99.90;;;;;;5119008;28;20416;-62
2022/11/15 12:47:27;;;;;;;;;;;15.30;99.90;;;;;;5119376;28;19907;-62
2022/11/15 12:49:53;;;;;;;;;;;14.80;99.90;;;;;;5119123;28;19912;-62
2022/11/15 12:52:19;;;;;;;;;;;14.60;99.90;;;;;;5119186;28;19908;-62
2022/11/15 12:54:57;;;;;;;;;;;14.50;99.90;;;;;;5118974;28;20382;-62
2022/11/15 12:57:30;;;;;;;;;;;14.50;99.90;;;;;;5119105;28;19998;-62
2022/11/15 13:00:01;;;;;;;;;;;14.50;99.90;;;;;;5119080;28;19908;-62
2022/11/15 13:02:41;;;;;;;;;;;14.80;99.90;;;;;;5118563;28;19908;-62
2022/11/15 13:05:18;;;;;;;;;;;15.40;99.90;;;;;;5118984;28;19908;-62
2022/11/15 13:07:44;;;;;;;;;;;16.10;99.90;;;;;;5118619;28;19931;-62
2022/11/15 13:10:09;;;;;;;;;;;16.50;99.90;;;;;;5118547;28;19935;-63
2022/11/15 13:12:38;;;;;;;;;;;16.80;99.90;;;;;;5118861;28;19908;-63
2022/11/15 13:15:13;;;;;;;;;;;17.10;99.90;;;;;;5118542;28;20430;-62
2022/11/15 13:17:43;;;;;;;;;;;17.20;99.90;;;;;;5118472;28;20278;-62
2022/11/15 13:20:15;;;;;;;;;;;17.20;99.90;;;;;;5118776;28;19908;-62
2022/11/15 13:22:51;;;;;;;;;;;17.00;98.60;;;;;;5118830;28;19960;-62
2022/11/15 13:25:26;;;;;;;;;;;17.00;99.90;;;;;;5119003;28;19919;-62
2022/11/15 13:27:51;;;;;;;;;;;16.80;99.90;;;;;;5118077;28;20069;-62
2022/11/15 13:30:22;;;;;;;;;;;16.70;99.90;;;;;;5118306;28;19955;-63
2022/11/15 13:32:49;;;;;;;;;;;16.40;99.90;;;;;;5100035;28;19914;-63
2022/11/15 13:35:19;;;;;;;;;;;16.60;99.90;;;;;;5118810;28;19907;-63
2022/11/15 13:37:45;;;;;;;;;;;17.10;99.90;;;;;;5118611;28;19921;-63
2022/11/15 13:40:18;;;;;;;;;;;17.30;96.30;;;;;;5118623;28;20402;-63
2022/11/15 13:42:43;;;;;;;;;;;16.90;99.90;;;;;;5118331;28;19999;-63
2022/11/15 13:45:13;;;;;;;;;;;16.80;98.40;;;;;;5118273;28;19956;-63
2022/11/15 13:47:38;;;;;;;;;;;17.10;99.90;;;;;;5118600;28;19907;-63
2022/11/15 13:50:05;;;;;;;;;;;17.40;99.90;;;;;;5118307;28;19912;-63
2022/11/15 13:52:36;;;;;;;;;;;17.70;95.40;;;;;;5118012;28;19908;-63
2022/11/15 13:55:21;;;;;;;;;;;17.80;99.70;;;;;;5118189;28;19907;-63
2022/11/15 13:57:51;;;;;;;;;;;17.70;93.00;;;;;;5118414;28;19908;-63
2022/11/15 14:00:40;;;;;;;;;;;18.00;94.60;;;;;;5118197;28;19908;-63
2022/11/15 14:03:14;;;;;;;;;;;18.20;97.10;;;;;;5090218;28;19915;-63
2022/11/15 14:05:39;;;;;;;;;;;17.50;92.00;;;;;;5118165;28;19908;-63
2022/11/15 14:08:20;;;;;;;;;;;17.20;92.90;;;;;;5117784;28;19949;-63
2022/11/15 14:10:46;;;;;;;;;;;17.50;92.10;;;;;;5117897;28;19949;-63
2022/11/15 14:13:28;;;;;;;;;;;17.70;94.50;;;;;;5118358;28;19914;-63
2022/11/15 14:15:53;;;;;;;;;;;17.60;94.20;;;;;;5118035;28;19912;-63
2022/11/15 14:18:57;;;;;;;;;;;17.10;93.50;;;;;;5118378;28;19914;-63
2022/11/15 14:21:23;;;;;;;;;;;16.70;93.90;;;;;;5015550;28;20003;-63
2022/11/15 14:23:50;;;;;;;;;;;16.30;92.40;;;;;;5015586;28;19913;-63
2022/11/15 14:26:34;;;;;;;;;;;15.90;93.00;;;;;;5046601;28;20010;-63
2022/11/15 14:29:35;;;;;;;;;;;15.50;91.60;;;;;;5118130;28;19937;-63
2022/11/15 14:32:13;;;;;;;;;;;15.20;93.60;;;;;;5015536;28;20023;-63
2022/11/15 14:34:38;;;;;;;;;;;15.00;94.10;;;;;;5104798;28;19915;-63
2022/11/15 14:37:04;;;;;;;;;;;14.90;93.70;;;;;;5117983;28;19935;-63
2022/11/15 14:39:30;;;;;;;;;;;14.80;95.10;;;;;;5118873;28;19908;-63
2022/11/15 14:41:55;;;;;;;;;;;14.70;95.20;;;;;;5121907;28;19914;-63
2022/11/15 14:44:21;;;;;;;;;;;14.70;94.70;;;;;;5121695;28;19915;-63